Aérodrome :
LOGIN :

S'inscrire | Disclaimer

   EN    FR    IT 

 










Légende :    VFR   VFR Marginal   IFR   IFR Intensif   IFR Très Intensif
Visi : 
Plafond : 
>= 8 km
>= 3000ft
5 à 8 km
1000 à 3000 ft
1500m à 5 km
500 à 1000 ft
800 à 1500m
200 à 500 ft
< 800m
< 200 ft
Symboles :   Orages  Brouillard  Fortes neiges  Fortes précipitations  Vent > 20 kt
SIGMETs :   Divers  Orages  Givrage  Turbulence  Onde Orograph.  Cendres Volcan.







- Altitude de l'aérodrome : 49 ft
- Code IATA : GLZ


EHGR - Gilze-Rijen Airbase

DERNIER METAR :
  • 220725Z AUTO 22008KT 200V290 9999 BKN180 BKN390 20/13 Q1023 BLU 23006KT CAVOK

METARs EXPIRÉS :
  • 220655Z AUTO 22006KT 180V270 9999 BKN160 OVC370 19/13 Q1023 BLU 23006KT CAVOK
  • 220625Z AUTO 22005KT 190V270 9999 OVC170 18/14 Q1022 BLU 23006KT CAVOK
  • 220555Z AUTO 22004KT 190V250 9999 OVC220 17/14 Q1022 BLU 23006KT CAVOK
  • 220533Z AUTO 22004KT 200V260 9999 OVC160 16/14 Q1022 BLU 23006KT CAVOK
  • 220525Z AUTO 22004KT 200V270 9999 OVC160 16/14 Q1022 BLU
  • 220455Z AUTO 22003KT 190V250 9999 OVC150 15/13 Q1022 BLU
  • 220428Z AUTO 23003KT 9999 OVC150 15/13 Q1022 BLU

TAF TAF EHGR
Valide du 22 à 05h jusqu'au 22 à 17h UTC


220428Z 2205/2217 VRB02KT CAVOK
BECMG 2205/2207 23007KT
PROB40
TEMPO 2209/2213 25010G22KT
Pas de NOTAMs connus pour ce terrain.



MET'MAP, la Météo Aéronautique d'un coup d'oeil ! - Copyright ORBIFLY Décembre 2007 - Disclaimer

ORBIFLY MET'MAP TEAM :

Programmation & Développement : Alexandra Zaïnal
Conception & Développement : Baudouin d'Aumeries
Co-Programmation & Développement : Marc-Olivier Méhu
Soutien technique & logistique : Manuel Goepfert

Contact : metmap@orbifly.com




SOURCES & CREDITS :

   NOAA